KFFT/FFT METAR and TAF weather

Enter ICAO airport designator
Station Type Date Time Source
KFFT METAR 2019/06/26 19:53 UTC NOAA

KFFT 261953Z AUTO VRB03KT 10SM CLR 31/19 A3014 RMK AO2 SLP198 T03110189


Station Type Date Time Source
KFFT Decoded METAR 2019/06/26 19:53 UTC NOAA

FRANKFORT CAPITAL CITY AIRPORT , KY, United States (KFFT) 38-11N 84-54W 236M
Jun 26, 2019 - 03:53 PM EDT / 2019.06.26 1953 UTC
Wind: Variable at 3 MPH (3 KT):0
Visibility: 10 mile(s):0
Sky conditions: clear
Temperature: 88.0 F (31.1 C)
Dew Point: 66.0 F (18.9 C)
Relative Humidity: 48%
Pressure (altimeter): 30.14 in. Hg (1020 hPa)
ob: KFFT 261953Z AUTO VRB03KT 10SM CLR 31/19 A3014 RMK AO2 SLP198 T03110189
cycle: 20

Station Type Date Time Source
KFFT TAF UTC NOAA

Error!

Example: see airport list